Time;durP1;ratioP1;P1;durP2;ratioP2;P2;SDS_P1;SDS_P2;PMS_P1;PMS_P2;Temp;Humidity;BMP_temperature;BMP_pressure;BME280_temperature;BME280_humidity;BME280_pressure;Samples;Min_cycle;Max_cycle;Signal;HPM_P1;HPM_P2
2023/06/23 00:01:22;;;;;;;8.40;8.10;;;21.90;30.80;;;;;;5069593;28;20582;-61
2023/06/23 00:03:48;;;;;;;7.13;6.93;;;21.90;31.20;;;;;;5069901;28;20624;-61
2023/06/23 00:06:14;;;;;;;7.43;7.13;;;21.90;31.50;;;;;;5070066;28;20424;-61
2023/06/23 00:08:40;;;;;;;7.70;7.40;;;21.90;31.50;;;;;;5070145;28;20235;-60
2023/06/23 00:11:07;;;;;;;7.10;6.90;;;21.80;31.50;;;;;;5069484;28;20441;-61
2023/06/23 00:13:34;;;;;;;7.90;7.60;;;21.90;31.60;;;;;;5069881;28;20511;-61
2023/06/23 00:16:05;;;;;;;8.60;8.30;;;21.90;31.50;;;;;;5069782;28;20413;-60
2023/06/23 00:18:39;;;;;;;8.60;8.20;;;22.00;31.20;;;;;;5069726;28;20421;-60
2023/06/23 00:21:08;;;;;;;8.50;8.20;;;21.90;31.50;;;;;;5069354;28;20425;-60
2023/06/23 00:23:35;;;;;;;8.40;8.00;;;21.90;31.50;;;;;;5069787;28;20418;-60
2023/06/23 00:26:03;;;;;;;7.40;7.20;;;21.90;31.60;;;;;;5069487;28;20429;-60
2023/06/23 00:28:29;;;;;;;7.93;7.63;;;21.90;32.20;;;;;;5069770;28;20414;-61
2023/06/23 00:30:54;;;;;;;7.83;7.53;;;21.90;31.60;;;;;;5069688;28;20936;-61
2023/06/23 00:33:20;;;;;;;8.33;8.03;;;21.80;31.40;;;;;;5069155;28;20221;-61
2023/06/23 00:35:46;;;;;;;8.03;7.73;;;21.80;31.90;;;;;;5069356;28;20685;-61
2023/06/23 00:38:13;;;;;;;8.00;7.60;;;21.70;32.40;;;;;;5069297;28;20175;-60
2023/06/23 00:40:39;;;;;;;8.50;8.20;;;21.70;32.90;;;;;;5069605;28;20409;-61
2023/06/23 00:43:04;;;;;;;8.20;7.90;;;21.70;33.30;;;;;;5068951;28;20551;-60
2023/06/23 00:45:30;;;;;;;8.10;7.80;;;21.70;33.70;;;;;;5069571;28;20475;-60
2023/06/23 00:47:56;;;;;;;8.40;8.10;;;21.70;34.00;;;;;;5069442;28;20175;-60
2023/06/23 00:50:23;;;;;;;8.60;8.30;;;21.70;34.00;;;;;;5073234;28;20628;-61
2023/06/23 00:52:50;;;;;;;9.13;8.73;;;21.70;33.70;;;;;;5072939;28;20464;-60
2023/06/23 00:55:21;;;;;;;8.60;8.30;;;21.70;34.10;;;;;;5073299;28;20607;-60
2023/06/23 00:57:54;;;;;;;9.03;8.73;;;21.60;34.50;;;;;;5073383;28;20440;-60
2023/06/23 01:00:21;;;;;;;9.10;8.80;;;21.60;35.10;;;;;;5073255;28;20417;-59
2023/06/23 01:02:49;;;;;;;9.37;8.97;;;21.60;35.10;;;;;;5072843;28;20422;-59
2023/06/23 01:05:31;;;;;;;9.83;9.33;;;21.60;35.40;;;;;;5073244;28;20432;-59
2023/06/23 01:08:27;;;;;;;9.70;9.20;;;21.60;36.00;;;;;;5072645;28;20425;-59
2023/06/23 01:11:03;;;;;;;8.70;8.33;;;21.50;38.90;;;;;;5072983;28;20469;-59
2023/06/23 01:13:37;;;;;;;8.90;8.60;;;21.50;39.40;;;;;;5072896;28;20464;-59
2023/06/23 01:16:18;;;;;;;9.30;9.00;;;21.40;38.80;;;;;;5072711;28;20406;-59
2023/06/23 01:19:33;;;;;;;8.70;8.40;;;21.50;35.80;;;;;;5073173;28;20417;-59
2023/06/23 01:22:18;;;;;;;9.57;9.27;;;21.60;36.50;;;;;;5063142;28;20425;-60
2023/06/23 01:25:01;;;;;;;9.27;8.87;;;21.40;38.40;;;;;;5072834;28;20909;-60
2023/06/23 01:27:52;;;;;;;8.87;8.57;;;21.30;40.60;;;;;;5072639;28;20425;-61
2023/06/23 01:30:25;;;;;;;8.57;8.27;;;21.10;43.80;;;;;;5073976;28;20413;-60
2023/06/23 01:32:56;;;;;;;9.20;8.80;;;20.80;45.30;;;;;;5072060;28;20468;-60
2023/06/23 01:35:27;;;;;;;8.90;8.57;;;20.60;47.40;;;;;;5072875;28;20930;-61
2023/06/23 01:38:02;;;;;;;9.30;8.90;;;20.50;48.40;;;;;;5072333;28;20436;-61
2023/06/23 01:40:28;;;;;;;9.40;9.00;;;20.50;47.60;;;;;;5071921;28;20413;-60
2023/06/23 01:42:56;;;;;;;9.53;9.13;;;20.40;46.30;;;;;;5071865;28;20757;-61
2023/06/23 01:45:27;;;;;;;10.40;9.90;;;20.30;47.30;;;;;;5072495;28;20266;-61
2023/06/23 01:47:56;;;;;;;10.60;10.10;;;20.30;46.40;;;;;;5072407;28;20427;-61
2023/06/23 01:50:23;;;;;;;11.40;10.80;;;20.20;45.60;;;;;;5072589;28;20471;-60
2023/06/23 01:52:51;;;;;;;11.30;10.80;;;20.20;44.00;;;;;;5071679;28;21017;-59
2023/06/23 01:55:18;;;;;;;11.83;11.33;;;20.30;45.70;;;;;;5072399;28;20417;-61
2023/06/23 01:57:46;;;;;;;11.43;10.83;;;20.10;45.00;;;;;;5071945;28;20810;-60
2023/06/23 02:00:16;;;;;;;11.67;11.17;;;20.10;45.50;;;;;;5070795;28;20475;-60
2023/06/23 02:02:47;;;;;;;11.37;10.87;;;20.00;45.80;;;;;;5071890;28;20436;-60
2023/06/23 02:05:14;;;;;;;10.97;10.47;;;19.90;46.40;;;;;;5072060;28;20768;-60
2023/06/23 02:07:43;;;;;;;10.10;9.70;;;19.80;46.40;;;;;;5072059;28;20418;-60
2023/06/23 02:10:09;;;;;;;10.40;10.00;;;19.70;46.10;;;;;;5071790;28;20446;-60
2023/06/23 02:12:38;;;;;;;10.53;10.03;;;19.60;46.20;;;;;;5071329;28;20496;-60
2023/06/23 02:15:05;;;;;;;10.80;10.30;;;19.60;47.60;;;;;;5071826;28;20430;-61
2023/06/23 02:17:31;;;;;;;9.57;9.17;;;19.60;46.60;;;;;;5071722;28;20928;-61
2023/06/23 02:19:59;;;;;;;9.67;9.27;;;19.50;47.70;;;;;;5071630;28;20615;-60
2023/06/23 02:22:28;;;;;;;9.70;9.30;;;19.60;45.70;;;;;;5071213;28;20421;-60
2023/06/23 02:24:54;;;;;;;8.80;8.50;;;19.50;46.30;;;;;;5071803;28;20921;-60
2023/06/23 02:27:21;;;;;;;9.87;9.47;;;19.60;46.40;;;;;;5071565;28;20433;-61
2023/06/23 02:29:48;;;;;;;9.63;9.23;;;19.70;44.20;;;;;;5071621;28;20783;-59
2023/06/23 02:32:16;;;;;;;9.87;9.47;;;19.70;44.60;;;;;;5070305;28;20471;-60
2023/06/23 02:34:46;;;;;;;9.40;9.00;;;19.60;44.40;;;;;;5071417;28;20460;-60
2023/06/23 02:37:16;;;;;;;10.10;9.70;;;19.60;44.30;;;;;;5071467;28;20418;-61
2023/06/23 02:39:46;;;;;;;9.97;9.57;;;19.50;44.90;;;;;;5071487;28;20425;-60
2023/06/23 02:42:13;;;;;;;9.60;9.30;;;19.50;44.50;;;;;;5070910;28;20508;-60
2023/06/23 02:44:45;;;;;;;10.70;10.20;;;19.40;43.80;;;;;;5071372;28;20513;-60
2023/06/23 02:47:16;;;;;;;10.50;10.10;;;19.50;44.10;;;;;;5071153;28;20504;-61
2023/06/23 02:49:44;;;;;;;11.17;10.77;;;19.40;43.10;;;;;;5070437;28;20461;-60
2023/06/23 02:52:13;;;;;;;11.70;11.20;;;19.40;43.80;;;;;;5070749;28;20468;-61
2023/06/23 02:54:44;;;;;;;11.13;10.70;;;19.30;43.70;;;;;;5071747;28;20409;-60
2023/06/23 02:57:15;;;;;;;12.53;11.83;;;19.20;44.30;;;;;;5071483;28;20512;-60
2023/06/23 02:59:43;;;;;;;11.63;11.13;;;19.20;43.60;;;;;;5071497;28;20409;-59
2023/06/23 03:02:11;;;;;;;12.53;11.83;;;19.30;44.50;;;;;;5069776;28;20877;-59
2023/06/23 03:04:38;;;;;;;13.10;12.43;;;19.30;43.50;;;;;;5051606;28;20453;-60
2023/06/23 03:07:05;;;;;;;14.10;13.40;;;19.20;44.40;;;;;;5050573;28;20733;-59
2023/06/23 03:09:31;;;;;;;13.57;12.87;;;19.20;43.20;;;;;;5050422;28;20472;-60
2023/06/23 03:11:57;;;;;;;14.90;14.00;;;19.30;42.90;;;;;;5048873;28;20466;-60
2023/06/23 03:14:23;;;;;;;15.20;14.20;;;19.40;43.50;;;;;;5050941;28;20433;-59
2023/06/23 03:17:14;;;;;;;14.67;13.97;;;19.40;42.80;;;;;;5050676;28;20204;-59
2023/06/23 03:20:00;;;;;;;15.37;14.57;;;19.30;42.50;;;;;;5050725;28;20426;-59
2023/06/23 03:22:49;;;;;;;15.20;14.40;;;19.30;43.10;;;;;;5049585;28;20480;-59
2023/06/23 03:25:20;;;;;;;15.20;14.40;;;19.40;42.00;;;;;;5050654;28;20418;-60
2023/06/23 03:27:47;;;;;;;16.10;15.30;;;19.50;41.70;;;;;;5050556;28;20430;-59
2023/06/23 03:30:24;;;;;;;15.70;14.90;;;19.50;41.60;;;;;;5050641;28;20856;-59
2023/06/23 03:32:53;;;;;;;15.67;14.77;;;19.40;42.50;;;;;;5049966;28;20465;-59
2023/06/23 03:35:25;;;;;;;15.93;14.93;;;19.40;43.30;;;;;;5050565;28;20419;-59
2023/06/23 03:37:56;;;;;;;16.60;15.60;;;19.40;43.90;;;;;;5050642;28;20422;-59
2023/06/23 03:40:25;;;;;;;15.63;14.73;;;19.40;43.10;;;;;;5050976;28;20907;-58
2023/06/23 03:42:55;;;;;;;15.70;14.87;;;19.40;43.40;;;;;;5050210;28;20513;-60
2023/06/23 03:45:24;;;;;;;16.27;15.37;;;19.40;41.40;;;;;;5050845;28;20426;-60
2023/06/23 03:47:53;;;;;;;16.10;15.20;;;19.30;40.10;;;;;;5050364;28;20449;-60
2023/06/23 03:50:23;;;;;;;14.77;13.97;;;19.30;40.90;;;;;;5050838;28;20476;-61
2023/06/23 03:52:50;;;;;;;16.40;15.50;;;19.40;40.70;;;;;;5049512;28;20497;-60
2023/06/23 03:55:19;;;;;;;16.60;15.70;;;19.40;40.20;;;;;;5050044;28;20575;-61
2023/06/23 03:57:46;;;;;;;15.80;14.93;;;19.50;40.20;;;;;;5049089;28;20907;-61
2023/06/23 04:00:13;;;;;;;16.93;15.90;;;19.60;39.40;;;;;;5049855;28;20847;-61
2023/06/23 04:02:43;;;;;;;16.20;15.20;;;19.60;38.40;;;;;;5050746;28;20433;-61
2023/06/23 04:05:12;;;;;;;16.47;15.53;;;19.60;38.50;;;;;;5049730;28;20918;-60
2023/06/23 04:07:40;;;;;;;16.20;15.30;;;19.60;38.60;;;;;;5050181;28;20422;-61
2023/06/23 04:10:08;;;;;;;17.67;16.57;;;19.50;38.50;;;;;;5050201;28;20459;-61
2023/06/23 04:12:35;;;;;;;17.20;16.10;;;19.50;38.60;;;;;;5049704;28;20532;-61
2023/06/23 04:15:07;;;;;;;16.80;15.80;;;19.50;38.90;;;;;;5050218;28;20418;-61
2023/06/23 04:17:37;;;;;;;17.73;16.63;;;19.50;38.50;;;;;;5050358;28;20746;-60
2023/06/23 04:20:05;;;;;;;16.57;15.67;;;19.60;38.00;;;;;;5049712;28;20462;-58
2023/06/23 04:22:34;;;;;;;18.27;17.27;;;19.50;38.30;;;;;;5048804;28;20422;-59
2023/06/23 04:25:03;;;;;;;18.50;17.50;;;19.50;38.00;;;;;;5050755;28;20418;-59
2023/06/23 04:27:32;;;;;;;19.00;17.93;;;19.60;37.50;;;;;;5049780;28;20442;-59
2023/06/23 04:29:58;;;;;;;19.17;17.90;;;19.60;37.40;;;;;;5049509;28;20419;-59
2023/06/23 04:32:24;;;;;;;18.90;17.80;;;19.60;37.30;;;;;;5049623;28;20541;-59
2023/06/23 04:34:50;;;;;;;18.40;17.40;;;19.50;37.50;;;;;;5049869;28;20450;-60
2023/06/23 04:37:37;;;;;;;19.87;18.50;;;19.50;37.40;;;;;;5049364;28;20418;-59
2023/06/23 04:40:18;;;;;;;18.53;17.37;;;19.70;36.60;;;;;;5049517;28;20180;-60
2023/06/23 04:42:54;;;;;;;19.50;18.00;;;19.70;36.40;;;;;;5049060;28;20422;-60
2023/06/23 04:45:26;;;;;;;20.33;19.13;;;19.60;36.10;;;;;;5049625;28;20913;-59
2023/06/23 04:48:00;;;;;;;17.87;16.80;;;19.70;36.20;;;;;;5048991;28;20453;-60
2023/06/23 04:50:29;;;;;;;20.77;19.47;;;19.70;35.70;;;;;;5049516;28;20929;-59
2023/06/23 04:53:03;;;;;;;17.53;16.53;;;19.70;35.40;;;;;;5048611;28;20810;-59
2023/06/23 04:55:32;;;;;;;19.83;18.53;;;19.80;35.60;;;;;;5050868;28;20402;-60
2023/06/23 04:57:59;;;;;;;18.10;17.10;;;19.80;35.50;;;;;;5048967;28;20421;-59
2023/06/23 05:00:26;;;;;;;20.70;19.50;;;19.80;35.70;;;;;;5049550;28;20456;-59
2023/06/23 05:02:55;;;;;;;21.63;20.13;;;19.70;35.10;;;;;;5048470;28;20708;-60
2023/06/23 05:05:24;;;;;;;21.03;19.60;;;19.70;35.60;;;;;;5049553;28;20434;-59
2023/06/23 05:07:52;;;;;;;23.20;21.70;;;19.70;35.50;;;;;;5049165;28;20577;-59
2023/06/23 05:10:20;;;;;;;20.97;19.77;;;19.80;35.00;;;;;;5045918;28;20418;-60
2023/06/23 05:12:49;;;;;;;24.40;22.80;;;19.80;35.00;;;;;;5048047;28;20457;-60
2023/06/23 05:15:17;;;;;;;23.73;22.27;;;19.90;34.10;;;;;;5048482;28;20414;-59
2023/06/23 05:17:44;;;;;;;23.20;21.60;;;19.80;34.30;;;;;;5047848;28;20504;-59
2023/06/23 05:20:12;;;;;;;22.23;20.93;;;19.90;34.70;;;;;;5047419;28;20476;-59
2023/06/23 05:22:39;;;;;;;24.70;23.20;;;19.90;34.50;;;;;;5048105;28;20514;-59
2023/06/23 05:25:07;;;;;;;23.10;21.70;;;20.00;33.90;;;;;;5045540;28;20426;-59
2023/06/23 05:27:35;;;;;;;25.67;24.07;;;20.00;33.70;;;;;;5043710;28;20786;-59
2023/06/23 05:30:03;;;;;;;25.80;24.00;;;20.00;32.90;;;;;;5044926;28;20430;-60
2023/06/23 05:32:32;;;;;;;26.30;24.50;;;20.00;33.10;;;;;;5045112;28;20465;-60
2023/06/23 05:35:02;;;;;;;27.03;25.07;;;20.00;32.50;;;;;;5047676;28;20418;-60
2023/06/23 05:37:30;;;;;;;25.73;24.03;;;20.00;33.00;;;;;;5050471;28;20426;-59
2023/06/23 05:39:57;;;;;;;26.27;24.43;;;20.10;32.80;;;;;;5049516;28;20422;-61
2023/06/23 05:42:23;;;;;;;28.23;26.37;;;20.10;32.30;;;;;;5052102;28;20495;-60
2023/06/23 05:44:49;;;;;;;27.40;25.70;;;20.20;31.70;;;;;;5051840;28;20414;-60
2023/06/23 05:47:18;;;;;;;27.90;25.90;;;20.20;31.30;;;;;;5052213;28;20180;-60
2023/06/23 05:49:45;;;;;;;28.40;26.40;;;20.20;31.10;;;;;;5052429;28;20184;-60
2023/06/23 05:52:16;;;;;;;28.10;26.20;;;20.30;31.20;;;;;;5051991;28;20462;-59
2023/06/23 05:54:45;;;;;;;26.83;24.93;;;20.20;30.80;;;;;;5052482;28;20824;-58
2023/06/23 05:57:22;;;;;;;26.87;25.00;;;20.20;31.10;;;;;;5051422;28;20513;-59
2023/06/23 06:00:01;;;;;;;28.93;26.73;;;20.10;31.20;;;;;;5050348;28;20450;-58
2023/06/23 06:02:30;;;;;;;28.50;26.37;;;20.10;31.40;;;;;;5051393;28;20452;-59
2023/06/23 06:04:59;;;;;;;27.97;25.97;;;20.10;31.60;;;;;;5052208;28;20990;-59
2023/06/23 06:07:26;;;;;;;28.27;26.33;;;20.10;31.20;;;;;;5049273;28;20441;-58
2023/06/23 06:09:53;;;;;;;26.83;25.03;;;20.00;31.60;;;;;;5049678;28;20425;-61
2023/06/23 06:12:19;;;;;;;28.73;26.70;;;20.00;31.50;;;;;;5048871;28;20474;-61
2023/06/23 06:14:46;;;;;;;26.00;24.40;;;20.00;31.60;;;;;;5049645;28;20414;-61
2023/06/23 06:17:14;;;;;;;29.17;27.00;;;20.10;30.80;;;;;;5048994;28;20898;-61
2023/06/23 06:19:42;;;;;;;26.33;24.53;;;20.10;30.40;;;;;;5050175;28;20718;-61
2023/06/23 06:22:10;;;;;;;27.50;25.50;;;20.20;30.10;;;;;;5047643;28;20429;-61
2023/06/23 06:24:37;;;;;;;23.77;22.17;;;20.20;30.00;;;;;;5051896;28;20789;-61
2023/06/23 06:27:05;;;;;;;25.60;24.00;;;20.40;30.20;;;;;;5050701;28;20504;-62
2023/06/23 06:29:35;;;;;;;26.97;25.17;;;20.40;29.80;;;;;;5051294;28;20457;-62
2023/06/23 06:32:04;;;;;;;24.83;23.20;;;20.40;29.50;;;;;;5048440;28;20470;-61
2023/06/23 06:34:31;;;;;;;25.80;24.00;;;20.50;30.20;;;;;;5050304;28;20812;-61
2023/06/23 06:37:00;;;;;;;25.53;23.70;;;20.50;30.20;;;;;;5048597;28;20411;-62
2023/06/23 06:39:28;;;;;;;26.30;24.47;;;20.50;30.00;;;;;;5047908;28;20446;-62
2023/06/23 06:41:57;;;;;;;26.63;24.73;;;20.50;30.20;;;;;;5045523;28;20478;-61
2023/06/23 06:44:22;;;;;;;26.63;24.93;;;20.50;29.70;;;;;;5050163;28;20410;-61
2023/06/23 06:46:50;;;;;;;27.23;25.43;;;20.50;30.00;;;;;;5048607;28;20777;-61
2023/06/23 06:49:18;;;;;;;24.00;22.17;;;20.50;29.00;;;;;;5049485;28;20929;-60
2023/06/23 06:51:44;;;;;;;26.60;24.70;;;20.50;29.40;;;;;;5048883;28;20414;-61
2023/06/23 06:54:10;;;;;;;24.70;22.90;;;20.40;28.70;;;;;;5049646;28;20418;-61
2023/06/23 06:56:36;;;;;;;24.63;22.70;;;20.40;29.10;;;;;;5052783;28;20549;-61
2023/06/23 06:59:03;;;;;;;25.37;23.67;;;20.50;29.10;;;;;;5050756;28;20199;-61
2023/06/23 07:01:28;;;;;;;26.63;24.77;;;20.40;29.20;;;;;;5048842;28;20432;-61
2023/06/23 07:03:56;;;;;;;25.10;23.30;;;20.40;29.30;;;;;;5049067;28;20509;-62
2023/06/23 07:06:21;;;;;;;25.83;24.13;;;20.40;29.60;;;;;;5050414;28;20372;-62
2023/06/23 07:08:48;;;;;;;24.93;23.33;;;20.50;29.20;;;;;;5047004;28;20421;-62
2023/06/23 07:11:13;;;;;;;26.13;24.37;;;20.50;29.40;;;;;;5049150;28;20196;-61
2023/06/23 07:13:39;;;;;;;25.80;24.00;;;20.50;29.20;;;;;;5051726;28;20454;-62
2023/06/23 07:16:05;;;;;;;24.43;22.90;;;20.50;29.80;;;;;;5050428;28;20203;-62
2023/06/23 07:18:31;;;;;;;24.10;22.47;;;20.60;29.10;;;;;;5050537;28;20441;-62
2023/06/23 07:20:57;;;;;;;24.70;23.00;;;20.60;28.70;;;;;;5050474;28;20422;-62
2023/06/23 07:23:23;;;;;;;24.00;22.30;;;20.60;28.90;;;;;;5049995;28;20180;-62
2023/06/23 07:25:49;;;;;;;25.90;24.00;;;20.60;28.70;;;;;;5051487;28;20176;-62
2023/06/23 07:28:14;;;;;;;25.47;23.77;;;20.70;27.90;;;;;;5050269;28;20421;-60
2023/06/23 07:30:40;;;;;;;25.77;24.03;;;20.60;27.30;;;;;;5050438;28;20542;-61
2023/06/23 07:33:06;;;;;;;25.20;23.33;;;20.60;26.90;;;;;;5049644;28;20571;-61
2023/06/23 07:35:32;;;;;;;24.80;23.10;;;20.50;27.00;;;;;;5050060;28;20176;-60
2023/06/23 07:37:58;;;;;;;22.83;21.43;;;20.50;26.90;;;;;;5049918;28;20972;-61
2023/06/23 07:40:24;;;;;;;24.47;22.87;;;20.60;27.30;;;;;;5051566;28;20406;-60
2023/06/23 07:42:49;;;;;;;24.20;22.70;;;20.60;26.90;;;;;;5049741;28;20199;-60
2023/06/23 07:45:15;;;;;;;23.33;21.83;;;20.60;26.70;;;;;;5049619;28;20468;-60
2023/06/23 07:47:40;;;;;;;23.30;21.70;;;20.70;26.90;;;;;;5048511;28;20798;-61
2023/06/23 07:50:06;;;;;;;23.30;21.83;;;20.80;26.80;;;;;;5048662;28;20176;-60
2023/06/23 07:52:32;;;;;;;22.97;21.27;;;20.80;26.10;;;;;;5049535;28;20204;-61
2023/06/23 07:54:58;;;;;;;20.43;19.13;;;20.90;25.60;;;;;;5049931;28;20782;-60
2023/06/23 07:57:25;;;;;;;21.80;20.37;;;21.00;25.90;;;;;;5051382;28;20175;-60
2023/06/23 07:59:50;;;;;;;20.40;19.10;;;21.10;25.50;;;;;;5049448;28;20176;-60
2023/06/23 08:02:16;;;;;;;19.03;17.80;;;21.10;25.50;;;;;;5050274;28;20775;-60
2023/06/23 08:04:42;;;;;;;20.50;19.27;;;21.10;25.90;;;;;;5051559;28;20526;-60
2023/06/23 08:07:08;;;;;;;19.77;18.57;;;21.20;25.70;;;;;;5051391;28;20410;-61
2023/06/23 08:09:34;;;;;;;19.73;18.47;;;21.20;25.60;;;;;;5051497;28;20427;-61
2023/06/23 08:11:59;;;;;;;19.90;18.70;;;21.30;25.00;;;;;;5033959;28;20213;-61
2023/06/23 08:14:25;;;;;;;19.00;17.70;;;21.20;25.20;;;;;;5052246;28;20587;-61
2023/06/23 08:16:51;;;;;;;17.97;16.77;;;21.20;24.90;;;;;;5050314;28;20644;-60
2023/06/23 08:19:21;;;;;;;18.17;17.17;;;21.10;24.70;;;;;;5049693;28;20180;-61
2023/06/23 08:21:51;;;;;;;18.87;17.67;;;21.10;25.20;;;;;;5049186;28;20229;-61
2023/06/23 08:24:17;;;;;;;20.47;19.17;;;21.20;24.80;;;;;;5049598;28;20933;-61
2023/06/23 08:26:44;;;;;;;20.33;19.03;;;21.20;24.50;;;;;;5049893;28;20421;-60
2023/06/23 08:29:10;;;;;;;19.10;17.97;;;21.20;24.40;;;;;;5050908;28;20246;-60
2023/06/23 08:31:36;;;;;;;20.70;19.40;;;21.10;25.50;;;;;;5048926;28;20915;-61
2023/06/23 08:34:02;;;;;;;19.27;17.97;;;21.10;25.20;;;;;;5049370;28;20183;-61
2023/06/23 08:36:27;;;;;;;17.40;16.30;;;21.10;25.30;;;;;;5049331;28;20176;-62
2023/06/23 08:38:53;;;;;;;18.37;17.10;;;21.30;25.00;;;;;;5049088;28;20180;-63
2023/06/23 08:41:24;;;;;;;19.07;17.87;;;21.30;24.80;;;;;;5032118;28;20186;-61
2023/06/23 08:43:52;;;;;;;18.37;17.37;;;21.40;24.90;;;;;;5049224;28;20179;-63
2023/06/23 08:46:21;;;;;;;19.57;18.10;;;21.40;24.60;;;;;;5049142;28;20775;-63
2023/06/23 08:48:51;;;;;;;19.87;18.53;;;21.40;24.90;;;;;;5049555;28;20424;-62
2023/06/23 08:51:17;;;;;;;19.63;18.33;;;21.40;24.30;;;;;;5048791;28;20430;-63
2023/06/23 08:53:44;;;;;;;18.77;17.47;;;21.50;24.30;;;;;;5049064;28;20468;-62
2023/06/23 08:56:10;;;;;;;17.30;16.40;;;21.40;24.50;;;;;;5049076;28;20417;-62
2023/06/23 08:58:36;;;;;;;18.20;17.10;;;21.50;24.60;;;;;;5049177;28;20457;-63
2023/06/23 09:01:02;;;;;;;18.97;17.87;;;21.50;24.40;;;;;;5049354;28;20454;-62
2023/06/23 09:03:28;;;;;;;19.07;17.97;;;21.70;24.00;;;;;;5049192;28;20176;-63
2023/06/23 09:05:53;;;;;;;18.17;17.03;;;21.90;23.00;;;;;;5048944;28;20603;-62
2023/06/23 09:08:20;;;;;;;19.03;17.70;;;21.90;23.00;;;;;;5049073;28;20175;-62
2023/06/23 09:10:45;;;;;;;19.60;18.50;;;22.00;23.00;;;;;;5050273;28;20188;-62
2023/06/23 09:13:27;;;;;;;20.00;18.70;;;22.00;23.10;;;;;;5052382;28;20888;-63
2023/06/23 09:15:53;;;;;;;19.67;18.50;;;21.90;23.00;;;;;;5052992;28;20172;-63
2023/06/23 09:18:19;;;;;;;19.47;18.27;;;22.00;23.10;;;;;;5053238;28;20415;-63
2023/06/23 09:20:47;;;;;;;18.80;17.60;;;22.00;23.10;;;;;;5053408;28;20410;-62
2023/06/23 09:23:18;;;;;;;17.83;16.63;;;22.00;23.00;;;;;;5052676;28;20813;-63
2023/06/23 09:25:51;;;;;;;16.47;15.43;;;22.10;23.10;;;;;;5052892;28;20757;-62
2023/06/23 09:28:29;;;;;;;18.70;17.50;;;22.20;22.40;;;;;;5052468;28;20410;-63
2023/06/23 09:30:57;;;;;;;17.20;16.20;;;22.30;21.20;;;;;;5053055;28;20425;-62
2023/06/23 09:33:24;;;;;;;18.20;17.20;;;22.40;21.50;;;;;;5052120;28;20466;-62
2023/06/23 09:35:54;;;;;;;16.20;15.30;;;22.40;21.70;;;;;;5052380;28;20411;-63
2023/06/23 09:38:24;;;;;;;17.50;15.90;;;22.50;21.50;;;;;;5052455;28;20433;-62
2023/06/23 09:41:19;;;;;;;15.67;14.70;;;22.60;20.70;;;;;;5053570;28;20471;-62
2023/06/23 09:43:50;;;;;;;15.83;14.93;;;22.70;20.40;;;;;;5043693;28;21063;-62
2023/06/23 09:46:18;;;;;;;15.70;14.87;;;22.60;20.60;;;;;;5052216;28;20429;-61
2023/06/23 09:48:46;;;;;;;15.20;14.00;;;22.60;19.50;;;;;;5052273;28;20418;-62
2023/06/23 09:51:12;;;;;;;14.90;14.10;;;22.60;19.50;;;;;;5051425;28;20418;-62
2023/06/23 09:53:42;;;;;;;15.20;14.40;;;22.70;19.30;;;;;;5052044;28;20486;-62
2023/06/23 09:56:17;;;;;;;15.10;14.20;;;22.70;18.90;;;;;;5051948;28;20446;-62
2023/06/23 09:58:44;;;;;;;13.73;12.80;;;22.80;18.90;;;;;;5052126;28;20415;-63
2023/06/23 10:01:18;;;;;;;15.13;14.20;;;22.90;18.80;;;;;;5051458;28;20415;-62
2023/06/23 10:03:50;;;;;;;12.73;12.00;;;23.00;19.00;;;;;;5052000;28;20890;-62
2023/06/23 10:06:32;;;;;;;14.37;13.37;;;23.10;18.70;;;;;;5051231;28;20472;-63
2023/06/23 10:09:11;;;;;;;14.13;13.23;;;23.30;18.90;;;;;;5052111;28;20505;-62
2023/06/23 10:11:39;;;;;;;14.10;13.20;;;23.30;17.30;;;;;;5052619;28;20966;-62
2023/06/23 10:14:11;;;;;;;13.23;12.53;;;23.50;16.90;;;;;;5051422;28;20419;-62
2023/06/23 10:16:43;;;;;;;14.23;13.33;;;23.60;16.90;;;;;;5051863;28;20430;-62
2023/06/23 10:19:09;;;;;;;13.27;12.27;;;23.80;16.60;;;;;;5051296;28;20422;-62
2023/06/23 10:21:36;;;;;;;15.20;14.10;;;23.80;17.00;;;;;;5050836;28;20452;-62
2023/06/23 10:24:04;;;;;;;13.97;13.17;;;23.90;15.70;;;;;;5051609;28;20206;-61
2023/06/23 10:26:33;;;;;;;12.73;11.83;;;24.00;15.80;;;;;;5050065;28;20464;-61
2023/06/23 10:29:06;;;;;;;12.17;11.57;;;24.00;16.20;;;;;;5050544;28;20423;-60
2023/06/23 10:31:34;;;;;;;12.53;11.80;;;24.00;16.60;;;;;;5050311;28;20415;-61
2023/06/23 10:34:01;;;;;;;13.73;12.93;;;24.00;16.40;;;;;;5050450;28;20537;-61
2023/06/23 10:36:30;;;;;;;13.90;13.10;;;23.80;15.70;;;;;;5050663;28;20418;-61
2023/06/23 10:38:58;;;;;;;12.80;12.00;;;23.70;15.70;;;;;;5051034;28;20448;-60
2023/06/23 10:41:26;;;;;;;12.93;12.07;;;23.60;16.20;;;;;;5050768;28;20811;-61
2023/06/23 10:43:54;;;;;;;11.50;10.70;;;23.40;16.20;;;;;;5051351;28;20426;-62
2023/06/23 10:46:22;;;;;;;11.77;11.00;;;23.30;17.00;;;;;;5051136;28;20410;-61
2023/06/23 10:48:48;;;;;;;12.57;11.87;;;23.10;16.90;;;;;;5052477;28;20422;-61
2023/06/23 10:51:15;;;;;;;12.77;11.90;;;23.10;17.40;;;;;;5050592;28;20425;-63
2023/06/23 10:53:57;;;;;;;13.13;12.13;;;23.10;17.90;;;;;;5050966;28;20450;-63
2023/06/23 10:56:34;;;;;;;12.67;11.90;;;23.10;18.00;;;;;;5050723;28;20414;-63
2023/06/23 10:59:29;;;;;;;12.10;11.40;;;23.10;18.10;;;;;;5051034;28;20442;-63
2023/06/23 11:02:01;;;;;;;12.00;11.33;;;23.20;17.20;;;;;;5050446;28;20411;-63
2023/06/23 11:04:28;;;;;;;12.07;11.30;;;23.30;16.90;;;;;;5051006;28;20418;-63
2023/06/23 11:07:15;;;;;;;12.63;11.80;;;23.40;16.60;;;;;;5047105;28;20452;-63
2023/06/23 11:10:02;;;;;;;12.10;11.40;;;23.40;16.50;;;;;;5047456;28;20416;-64
2023/06/23 11:12:29;;;;;;;12.67;11.97;;;23.40;16.80;;;;;;5047022;28;20566;-63
2023/06/23 11:15:25;;;;;;;12.33;11.40;;;23.40;16.80;;;;;;5047290;28;20426;-63
2023/06/23 11:18:04;;;;;;;12.20;11.30;;;23.30;17.00;;;;;;5030123;28;20933;-63
2023/06/23 11:20:31;;;;;;;12.50;11.80;;;23.30;17.10;;;;;;5047354;28;20444;-63
2023/06/23 11:23:03;;;;;;;12.93;11.70;;;23.30;16.50;;;;;;5045607;28;20422;-63
2023/06/23 11:25:32;;;;;;;11.67;10.83;;;23.40;16.70;;;;;;5046667;28;20422;-63
2023/06/23 11:28:27;;;;;;;11.97;11.13;;;23.40;16.90;;;;;;5046781;28;20427;-63
2023/06/23 11:31:20;;;;;;;11.37;10.77;;;23.50;16.00;;;;;;5047099;28;20503;-63
2023/06/23 11:33:55;;;;;;;11.10;10.40;;;23.50;15.50;;;;;;5029165;28;20467;-63
2023/06/23 11:36:24;;;;;;;11.63;10.97;;;23.60;15.20;;;;;;5046982;28;20418;-64
2023/06/23 11:38:50;;;;;;;11.77;11.07;;;23.70;15.60;;;;;;5046938;28;20419;-62
2023/06/23 11:41:27;;;;;;;11.60;10.80;;;23.80;16.70;;;;;;5046163;28;20702;-62
2023/06/23 11:44:01;;;;;;;12.20;11.40;;;23.80;15.70;;;;;;5046737;28;20505;-61
2023/06/23 11:46:30;;;;;;;11.33;10.60;;;23.80;15.70;;;;;;5046850;28;20493;-61
2023/06/23 11:48:56;;;;;;;11.30;10.60;;;23.70;15.90;;;;;;5046319;28;20418;-61
2023/06/23 11:51:22;;;;;;;11.43;10.83;;;23.80;15.50;;;;;;5045984;28;20787;-62
2023/06/23 11:53:53;;;;;;;11.83;11.00;;;23.80;16.20;;;;;;5046762;28;20215;-61
2023/06/23 11:56:20;;;;;;;11.60;10.90;;;23.90;15.70;;;;;;5046676;28;20916;-61
2023/06/23 11:58:55;;;;;;;12.20;11.30;;;23.90;15.70;;;;;;5046590;28;20415;-61
2023/06/23 12:01:22;;;;;;;11.53;10.90;;;23.90;15.70;;;;;;5046079;28;20916;-62
2023/06/23 12:03:52;;;;;;;11.87;11.07;;;23.80;16.20;;;;;;5046173;28;20411;-61
2023/06/23 12:06:19;;;;;;;12.00;11.20;;;23.80;15.70;;;;;;5046447;28;20415;-62
2023/06/23 12:08:49;;;;;;;12.00;11.20;;;23.80;15.60;;;;;;5046703;28;20444;-62
2023/06/23 12:11:17;;;;;;;12.30;11.40;;;23.80;15.10;;;;;;5045722;28;20939;-63
2023/06/23 12:13:45;;;;;;;10.33;9.77;;;23.90;15.70;;;;;;5046492;28;20455;-62
2023/06/23 12:16:11;;;;;;;11.47;10.70;;;23.90;15.70;;;;;;5029738;28;20427;-62
2023/06/23 12:18:51;;;;;;;15.37;14.10;;;23.90;16.30;;;;;;5045900;28;20426;-62
2023/06/23 12:21:18;;;;;;;10.30;9.80;;;23.90;15.70;;;;;;5045571;28;20413;-62
2023/06/23 12:23:43;;;;;;;11.43;10.73;;;23.90;16.30;;;;;;5056309;28;20433;-62
2023/06/23 12:26:09;;;;;;;11.80;11.10;;;23.90;14.50;;;;;;5068073;28;20420;-62
2023/06/23 12:28:35;;;;;;;10.27;9.77;;;23.90;14.40;;;;;;5068091;28;20167;-62
2023/06/23 12:31:03;;;;;;;10.53;9.80;;;23.80;14.40;;;;;;5067862;28;20413;-62
2023/06/23 12:33:29;;;;;;;11.00;10.30;;;23.80;14.80;;;;;;5067717;28;20207;-64
2023/06/23 12:35:58;;;;;;;10.87;10.23;;;23.80;15.20;;;;;;5067970;28;20419;-64
2023/06/23 12:38:24;;;;;;;10.50;9.90;;;23.70;15.60;;;;;;5068641;28;20171;-61
2023/06/23 12:40:50;;;;;;;11.67;10.93;;;23.60;15.50;;;;;;5068841;28;20766;-61
2023/06/23 12:43:18;;;;;;;11.57;10.87;;;23.60;16.00;;;;;;5067216;28;20508;-60